sensor_id;sensor_type;location;lat;lon;timestamp;P1;durP1;ratioP1;P2;durP2;ratioP2
8993;SDS011;4532;50.886;4.700;2023-04-24T00:01:09;13.77;;;9.10;;
8993;SDS011;4532;50.886;4.700;2023-04-24T00:03:39;13.70;;;9.63;;
8993;SDS011;4532;50.886;4.700;2023-04-24T00:06:07;16.30;;;10.57;;
8993;SDS011;4532;50.886;4.700;2023-04-24T00:08:39;13.63;;;9.87;;
8993;SDS011;4532;50.886;4.700;2023-04-24T00:11:06;13.63;;;10.03;;
8993;SDS011;4532;50.886;4.700;2023-04-24T00:13:33;13.73;;;9.63;;
8993;SDS011;4532;50.886;4.700;2023-04-24T00:16:05;16.80;;;10.87;;
8993;SDS011;4532;50.886;4.700;2023-04-24T00:18:34;15.57;;;9.97;;
8993;SDS011;4532;50.886;4.700;2023-04-24T00:21:01;13.50;;;9.90;;
8993;SDS011;4532;50.886;4.700;2023-04-24T00:23:34;17.20;;;10.33;;
8993;SDS011;4532;50.886;4.700;2023-04-24T00:26:03;15.37;;;10.03;;
8993;SDS011;4532;50.886;4.700;2023-04-24T00:28:33;13.07;;;9.77;;
8993;SDS011;4532;50.886;4.700;2023-04-24T00:31:00;15.73;;;10.90;;
8993;SDS011;4532;50.886;4.700;2023-04-24T00:33:27;16.77;;;9.93;;
8993;SDS011;4532;50.886;4.700;2023-04-24T00:35:57;13.10;;;10.23;;
8993;SDS011;4532;50.886;4.700;2023-04-24T00:38:24;14.17;;;9.63;;
8993;SDS011;4532;50.886;4.700;2023-04-24T00:40:51;14.20;;;8.60;;
8993;SDS011;4532;50.886;4.700;2023-04-24T00:43:20;12.40;;;9.30;;
8993;SDS011;4532;50.886;4.700;2023-04-24T00:45:49;13.53;;;9.83;;
8993;SDS011;4532;50.886;4.700;2023-04-24T00:48:17;13.47;;;10.27;;
8993;SDS011;4532;50.886;4.700;2023-04-24T00:50:52;19.00;;;10.30;;
8993;SDS011;4532;50.886;4.700;2023-04-24T00:53:21;12.87;;;9.67;;
8993;SDS011;4532;50.886;4.700;2023-04-24T00:55:49;16.10;;;10.40;;
8993;SDS011;4532;50.886;4.700;2023-04-24T00:58:19;13.67;;;10.40;;
8993;SDS011;4532;50.886;4.700;2023-04-24T01:00:51;18.33;;;10.87;;
8993;SDS011;4532;50.886;4.700;2023-04-24T01:03:21;14.23;;;9.30;;
8993;SDS011;4532;50.886;4.700;2023-04-24T01:05:53;15.67;;;11.10;;
8993;SDS011;4532;50.886;4.700;2023-04-24T01:08:25;12.60;;;8.70;;
8993;SDS011;4532;50.886;4.700;2023-04-24T01:10:59;16.93;;;10.13;;
8993;SDS011;4532;50.886;4.700;2023-04-24T01:13:32;16.33;;;10.10;;
8993;SDS011;4532;50.886;4.700;2023-04-24T01:16:02;12.07;;;9.10;;
8993;SDS011;4532;50.886;4.700;2023-04-24T01:18:35;16.20;;;9.73;;
8993;SDS011;4532;50.886;4.700;2023-04-24T01:21:06;15.47;;;10.20;;
8993;SDS011;4532;50.886;4.700;2023-04-24T01:23:35;15.47;;;9.67;;
8993;SDS011;4532;50.886;4.700;2023-04-24T01:26:02;16.97;;;9.80;;
8993;SDS011;4532;50.886;4.700;2023-04-24T01:28:29;13.27;;;8.83;;
8993;SDS011;4532;50.886;4.700;2023-04-24T01:30:57;13.57;;;9.37;;
8993;SDS011;4532;50.886;4.700;2023-04-24T01:33:32;16.47;;;9.73;;
8993;SDS011;4532;50.886;4.700;2023-04-24T01:36:00;13.03;;;9.27;;
8993;SDS011;4532;50.886;4.700;2023-04-24T01:38:30;16.10;;;9.73;;
8993;SDS011;4532;50.886;4.700;2023-04-24T01:40:57;15.63;;;9.17;;
8993;SDS011;4532;50.886;4.700;2023-04-24T01:43:24;10.27;;;7.50;;
8993;SDS011;4532;50.886;4.700;2023-04-24T01:45:54;10.90;;;8.47;;
8993;SDS011;4532;50.886;4.700;2023-04-24T01:48:21;12.00;;;7.80;;
8993;SDS011;4532;50.886;4.700;2023-04-24T01:50:49;14.77;;;8.30;;
8993;SDS011;4532;50.886;4.700;2023-04-24T01:53:16;13.00;;;7.67;;
8993;SDS011;4532;50.886;4.700;2023-04-24T01:55:48;12.50;;;8.67;;
8993;SDS011;4532;50.886;4.700;2023-04-24T01:58:15;12.13;;;8.20;;
8993;SDS011;4532;50.886;4.700;2023-04-24T02:00:42;11.07;;;8.07;;
8993;SDS011;4532;50.886;4.700;2023-04-24T02:03:14;10.80;;;7.90;;
8993;SDS011;4532;50.886;4.700;2023-04-24T02:05:44;10.13;;;7.00;;
8993;SDS011;4532;50.886;4.700;2023-04-24T02:08:13;11.37;;;7.33;;
8993;SDS011;4532;50.886;4.700;2023-04-24T02:10:41;10.70;;;7.50;;
8993;SDS011;4532;50.886;4.700;2023-04-24T02:13:10;12.17;;;7.37;;
8993;SDS011;4532;50.886;4.700;2023-04-24T02:15:42;9.33;;;7.10;;
8993;SDS011;4532;50.886;4.700;2023-04-24T02:18:14;9.87;;;7.53;;
8993;SDS011;4532;50.886;4.700;2023-04-24T02:20:42;11.63;;;7.30;;
8993;SDS011;4532;50.886;4.700;2023-04-24T02:23:09;10.60;;;7.73;;
8993;SDS011;4532;50.886;4.700;2023-04-24T02:25:36;8.43;;;7.20;;
8993;SDS011;4532;50.886;4.700;2023-04-24T02:28:08;11.37;;;7.67;;
8993;SDS011;4532;50.886;4.700;2023-04-24T02:30:37;9.67;;;7.93;;
8993;SDS011;4532;50.886;4.700;2023-04-24T02:33:04;9.37;;;7.50;;
8993;SDS011;4532;50.886;4.700;2023-04-24T02:35:34;9.13;;;7.70;;
8993;SDS011;4532;50.886;4.700;2023-04-24T02:38:03;12.13;;;9.10;;
8993;SDS011;4532;50.886;4.700;2023-04-24T02:40:33;12.60;;;8.87;;
8993;SDS011;4532;50.886;4.700;2023-04-24T02:43:03;9.37;;;8.37;;
8993;SDS011;4532;50.886;4.700;2023-04-24T02:45:32;9.87;;;7.93;;
8993;SDS011;4532;50.886;4.700;2023-04-24T02:48:03;11.60;;;8.20;;
8993;SDS011;4532;50.886;4.700;2023-04-24T02:50:32;13.07;;;9.37;;
8993;SDS011;4532;50.886;4.700;2023-04-24T02:53:05;11.50;;;9.10;;
8993;SDS011;4532;50.886;4.700;2023-04-24T02:55:32;11.50;;;8.60;;
8993;SDS011;4532;50.886;4.700;2023-04-24T02:58:01;10.33;;;8.20;;
8993;SDS011;4532;50.886;4.700;2023-04-24T03:00:31;10.60;;;8.73;;
8993;SDS011;4532;50.886;4.700;2023-04-24T03:03:01;11.73;;;8.83;;
8993;SDS011;4532;50.886;4.700;2023-04-24T03:05:32;12.17;;;8.27;;
8993;SDS011;4532;50.886;4.700;2023-04-24T03:08:01;11.17;;;8.87;;
8993;SDS011;4532;50.886;4.700;2023-04-24T03:10:29;9.77;;;8.47;;
8993;SDS011;4532;50.886;4.700;2023-04-24T03:12:56;10.33;;;7.80;;
8993;SDS011;4532;50.886;4.700;2023-04-24T03:15:23;10.97;;;7.70;;
8993;SDS011;4532;50.886;4.700;2023-04-24T03:17:55;10.50;;;7.83;;
8993;SDS011;4532;50.886;4.700;2023-04-24T03:20:25;7.70;;;6.90;;
8993;SDS011;4532;50.886;4.700;2023-04-24T03:22:55;13.00;;;7.60;;
8993;SDS011;4532;50.886;4.700;2023-04-24T03:25:23;9.63;;;7.23;;
8993;SDS011;4532;50.886;4.700;2023-04-24T03:27:53;9.30;;;7.20;;
8993;SDS011;4532;50.886;4.700;2023-04-24T03:30:21;7.63;;;6.80;;
8993;SDS011;4532;50.886;4.700;2023-04-24T03:32:52;8.10;;;6.80;;
8993;SDS011;4532;50.886;4.700;2023-04-24T03:35:22;10.57;;;7.33;;
8993;SDS011;4532;50.886;4.700;2023-04-24T03:37:52;8.33;;;6.70;;
8993;SDS011;4532;50.886;4.700;2023-04-24T03:40:19;8.73;;;6.60;;
8993;SDS011;4532;50.886;4.700;2023-04-24T03:42:46;8.60;;;6.20;;
8993;SDS011;4532;50.886;4.700;2023-04-24T03:45:17;10.63;;;6.80;;
8993;SDS011;4532;50.886;4.700;2023-04-24T03:47:47;7.40;;;6.13;;
8993;SDS011;4532;50.886;4.700;2023-04-24T03:50:14;8.77;;;6.53;;
8993;SDS011;4532;50.886;4.700;2023-04-24T03:52:44;9.83;;;6.40;;
8993;SDS011;4532;50.886;4.700;2023-04-24T03:55:13;6.93;;;5.90;;
8993;SDS011;4532;50.886;4.700;2023-04-24T03:57:41;8.17;;;5.77;;
8993;SDS011;4532;50.886;4.700;2023-04-24T04:00:08;8.33;;;6.27;;
8993;SDS011;4532;50.886;4.700;2023-04-24T04:02:36;7.03;;;5.60;;
8993;SDS011;4532;50.886;4.700;2023-04-24T04:05:08;6.10;;;5.33;;
8993;SDS011;4532;50.886;4.700;2023-04-24T04:07:40;7.10;;;5.17;;
8993;SDS011;4532;50.886;4.700;2023-04-24T04:10:12;7.87;;;5.17;;
8993;SDS011;4532;50.886;4.700;2023-04-24T04:12:41;7.40;;;5.20;;
8993;SDS011;4532;50.886;4.700;2023-04-24T04:15:10;6.37;;;4.53;;
8993;SDS011;4532;50.886;4.700;2023-04-24T04:17:40;6.87;;;4.70;;
8993;SDS011;4532;50.886;4.700;2023-04-24T04:20:08;6.63;;;4.40;;
8993;SDS011;4532;50.886;4.700;2023-04-24T04:22:36;4.57;;;4.00;;
8993;SDS011;4532;50.886;4.700;2023-04-24T04:25:06;5.70;;;3.97;;
8993;SDS011;4532;50.886;4.700;2023-04-24T04:27:34;6.03;;;3.90;;
8993;SDS011;4532;50.886;4.700;2023-04-24T04:30:02;3.63;;;3.33;;
8993;SDS011;4532;50.886;4.700;2023-04-24T04:32:36;5.27;;;4.17;;
8993;SDS011;4532;50.886;4.700;2023-04-24T04:35:08;4.37;;;3.80;;
8993;SDS011;4532;50.886;4.700;2023-04-24T04:37:38;4.97;;;3.63;;
8993;SDS011;4532;50.886;4.700;2023-04-24T04:40:09;4.17;;;3.37;;
8993;SDS011;4532;50.886;4.700;2023-04-24T04:42:40;4.33;;;3.67;;
8993;SDS011;4532;50.886;4.700;2023-04-24T04:45:10;4.53;;;3.37;;
8993;SDS011;4532;50.886;4.700;2023-04-24T04:47:38;4.63;;;3.30;;
8993;SDS011;4532;50.886;4.700;2023-04-24T04:50:10;4.03;;;3.10;;
8993;SDS011;4532;50.886;4.700;2023-04-24T04:52:39;3.33;;;2.83;;
8993;SDS011;4532;50.886;4.700;2023-04-24T04:55:09;3.97;;;3.53;;
8993;SDS011;4532;50.886;4.700;2023-04-24T04:57:39;5.00;;;4.03;;
8993;SDS011;4532;50.886;4.700;2023-04-24T05:00:09;5.70;;;4.17;;
8993;SDS011;4532;50.886;4.700;2023-04-24T05:02:39;5.30;;;4.33;;
8993;SDS011;4532;50.886;4.700;2023-04-24T05:05:07;5.33;;;4.33;;
8993;SDS011;4532;50.886;4.700;2023-04-24T05:07:40;7.93;;;4.50;;
8993;SDS011;4532;50.886;4.700;2023-04-24T05:10:07;6.43;;;4.80;;
8993;SDS011;4532;50.886;4.700;2023-04-24T05:12:38;7.37;;;5.53;;
8993;SDS011;4532;50.886;4.700;2023-04-24T05:15:05;7.63;;;6.00;;
8993;SDS011;4532;50.886;4.700;2023-04-24T05:17:38;10.37;;;6.57;;
8993;SDS011;4532;50.886;4.700;2023-04-24T05:20:12;7.50;;;6.47;;
8993;SDS011;4532;50.886;4.700;2023-04-24T05:22:39;7.10;;;6.07;;
8993;SDS011;4532;50.886;4.700;2023-04-24T05:25:09;7.83;;;6.80;;
8993;SDS011;4532;50.886;4.700;2023-04-24T05:27:41;9.37;;;6.57;;
8993;SDS011;4532;50.886;4.700;2023-04-24T05:30:09;8.30;;;6.60;;
8993;SDS011;4532;50.886;4.700;2023-04-24T05:32:39;10.30;;;7.13;;
8993;SDS011;4532;50.886;4.700;2023-04-24T05:35:06;9.10;;;6.50;;
8993;SDS011;4532;50.886;4.700;2023-04-24T05:37:34;10.10;;;6.93;;
8993;SDS011;4532;50.886;4.700;2023-04-24T05:40:01;7.67;;;6.67;;
8993;SDS011;4532;50.886;4.700;2023-04-24T05:42:31;11.33;;;7.33;;
8993;SDS011;4532;50.886;4.700;2023-04-24T05:44:58;9.33;;;7.10;;
8993;SDS011;4532;50.886;4.700;2023-04-24T05:47:25;10.83;;;7.70;;
8993;SDS011;4532;50.886;4.700;2023-04-24T05:49:55;10.67;;;7.07;;
8993;SDS011;4532;50.886;4.700;2023-04-24T05:52:22;10.30;;;7.27;;
8993;SDS011;4532;50.886;4.700;2023-04-24T05:54:52;8.47;;;7.27;;
8993;SDS011;4532;50.886;4.700;2023-04-24T05:57:19;10.00;;;7.53;;
8993;SDS011;4532;50.886;4.700;2023-04-24T05:59:46;10.07;;;7.40;;
8993;SDS011;4532;50.886;4.700;2023-04-24T06:02:13;10.10;;;7.57;;
8993;SDS011;4532;50.886;4.700;2023-04-24T06:04:41;9.03;;;7.30;;
8993;SDS011;4532;50.886;4.700;2023-04-24T06:07:10;11.07;;;7.70;;
8993;SDS011;4532;50.886;4.700;2023-04-24T06:09:39;15.10;;;9.20;;
8993;SDS011;4532;50.886;4.700;2023-04-24T06:12:09;16.30;;;8.70;;
8993;SDS011;4532;50.886;4.700;2023-04-24T06:14:38;12.13;;;8.47;;
8993;SDS011;4532;50.886;4.700;2023-04-24T06:17:06;14.23;;;8.30;;
8993;SDS011;4532;50.886;4.700;2023-04-24T06:19:38;13.17;;;8.10;;
8993;SDS011;4532;50.886;4.700;2023-04-24T06:22:08;9.83;;;7.97;;
8993;SDS011;4532;50.886;4.700;2023-04-24T06:24:39;12.07;;;8.70;;
8993;SDS011;4532;50.886;4.700;2023-04-24T06:27:06;16.57;;;10.00;;
8993;SDS011;4532;50.886;4.700;2023-04-24T06:29:34;15.80;;;9.93;;
8993;SDS011;4532;50.886;4.700;2023-04-24T06:32:01;13.63;;;9.27;;
8993;SDS011;4532;50.886;4.700;2023-04-24T06:34:31;14.87;;;9.07;;
8993;SDS011;4532;50.886;4.700;2023-04-24T06:37:05;12.53;;;9.50;;
8993;SDS011;4532;50.886;4.700;2023-04-24T06:39:33;12.43;;;9.70;;
8993;SDS011;4532;50.886;4.700;2023-04-24T06:42:02;13.47;;;10.00;;
8993;SDS011;4532;50.886;4.700;2023-04-24T06:44:29;15.13;;;10.60;;
8993;SDS011;4532;50.886;4.700;2023-04-24T06:46:56;15.13;;;9.60;;
8993;SDS011;4532;50.886;4.700;2023-04-24T06:49:26;14.03;;;9.97;;
8993;SDS011;4532;50.886;4.700;2023-04-24T06:51:53;14.57;;;10.13;;
8993;SDS011;4532;50.886;4.700;2023-04-24T06:54:23;15.17;;;10.30;;
8993;SDS011;4532;50.886;4.700;2023-04-24T06:56:53;14.23;;;9.27;;
8993;SDS011;4532;50.886;4.700;2023-04-24T06:59:21;13.63;;;9.33;;
8993;SDS011;4532;50.886;4.700;2023-04-24T07:01:50;15.00;;;11.07;;
8993;SDS011;4532;50.886;4.700;2023-04-24T07:04:21;21.47;;;12.43;;
8993;SDS011;4532;50.886;4.700;2023-04-24T07:06:49;18.07;;;11.27;;
8993;SDS011;4532;50.886;4.700;2023-04-24T07:09:24;20.23;;;11.40;;
8993;SDS011;4532;50.886;4.700;2023-04-24T07:11:54;14.80;;;11.33;;
8993;SDS011;4532;50.886;4.700;2023-04-24T07:14:26;20.27;;;11.83;;
8993;SDS011;4532;50.886;4.700;2023-04-24T07:16:55;18.70;;;11.80;;
8993;SDS011;4532;50.886;4.700;2023-04-24T07:19:28;17.40;;;11.43;;
8993;SDS011;4532;50.886;4.700;2023-04-24T07:21:57;18.10;;;12.43;;
8993;SDS011;4532;50.886;4.700;2023-04-24T07:24:26;16.93;;;12.43;;
8993;SDS011;4532;50.886;4.700;2023-04-24T07:26:58;17.40;;;12.70;;
8993;SDS011;4532;50.886;4.700;2023-04-24T07:29:29;19.33;;;11.77;;
8993;SDS011;4532;50.886;4.700;2023-04-24T07:31:59;19.03;;;12.03;;
8993;SDS011;4532;50.886;4.700;2023-04-24T07:34:29;17.33;;;11.87;;
8993;SDS011;4532;50.886;4.700;2023-04-24T07:36:57;18.40;;;12.17;;
8993;SDS011;4532;50.886;4.700;2023-04-24T07:39:24;17.83;;;11.97;;
8993;SDS011;4532;50.886;4.700;2023-04-24T07:41:54;18.17;;;11.23;;
8993;SDS011;4532;50.886;4.700;2023-04-24T07:44:25;17.40;;;12.20;;
8993;SDS011;4532;50.886;4.700;2023-04-24T07:46:55;19.73;;;12.13;;
8993;SDS011;4532;50.886;4.700;2023-04-24T07:49:23;19.00;;;12.70;;
8993;SDS011;4532;50.886;4.700;2023-04-24T07:51:54;15.57;;;11.63;;
8993;SDS011;4532;50.886;4.700;2023-04-24T07:54:21;19.63;;;11.80;;
8993;SDS011;4532;50.886;4.700;2023-04-24T07:56:55;17.40;;;10.97;;
8993;SDS011;4532;50.886;4.700;2023-04-24T07:59:25;15.03;;;10.57;;
8993;SDS011;4532;50.886;4.700;2023-04-24T08:01:54;17.47;;;11.00;;
8993;SDS011;4532;50.886;4.700;2023-04-24T08:04:22;19.23;;;10.67;;
8993;SDS011;4532;50.886;4.700;2023-04-24T08:06:49;16.43;;;10.70;;
8993;SDS011;4532;50.886;4.700;2023-04-24T08:09:21;16.87;;;10.57;;
8993;SDS011;4532;50.886;4.700;2023-04-24T08:11:53;14.13;;;9.43;;
8993;SDS011;4532;50.886;4.700;2023-04-24T08:14:20;16.50;;;9.57;;
8993;SDS011;4532;50.886;4.700;2023-04-24T08:16:47;10.93;;;8.13;;
8993;SDS011;4532;50.886;4.700;2023-04-24T08:19:14;18.20;;;9.60;;
8993;SDS011;4532;50.886;4.700;2023-04-24T08:21:46;16.50;;;9.53;;
8993;SDS011;4532;50.886;4.700;2023-04-24T08:24:15;18.83;;;8.10;;
8993;SDS011;4532;50.886;4.700;2023-04-24T08:26:43;16.00;;;9.07;;
8993;SDS011;4532;50.886;4.700;2023-04-24T08:29:10;13.23;;;7.63;;
8993;SDS011;4532;50.886;4.700;2023-04-24T08:31:37;14.77;;;7.33;;
8993;SDS011;4532;50.886;4.700;2023-04-24T08:34:05;13.23;;;7.93;;
8993;SDS011;4532;50.886;4.700;2023-04-24T08:36:32;10.57;;;7.30;;
8993;SDS011;4532;50.886;4.700;2023-04-24T08:39:16;15.57;;;7.60;;
8993;SDS011;4532;50.886;4.700;2023-04-24T08:41:47;12.83;;;7.20;;
8993;SDS011;4532;50.886;4.700;2023-04-24T08:44:23;13.20;;;7.70;;
8993;SDS011;4532;50.886;4.700;2023-04-24T08:46:51;12.80;;;7.33;;
8993;SDS011;4532;50.886;4.700;2023-04-24T08:49:22;13.27;;;7.77;;
8993;SDS011;4532;50.886;4.700;2023-04-24T08:51:52;11.40;;;7.80;;
8993;SDS011;4532;50.886;4.700;2023-04-24T08:54:22;14.87;;;8.03;;
8993;SDS011;4532;50.886;4.700;2023-04-24T08:56:59;13.53;;;8.13;;
8993;SDS011;4532;50.886;4.700;2023-04-24T08:59:31;20.40;;;7.50;;
8993;SDS011;4532;50.886;4.700;2023-04-24T09:01:59;13.63;;;6.93;;
8993;SDS011;4532;50.886;4.700;2023-04-24T09:04:29;15.90;;;7.33;;
8993;SDS011;4532;50.886;4.700;2023-04-24T09:06:59;18.00;;;7.73;;
8993;SDS011;4532;50.886;4.700;2023-04-24T09:09:30;14.07;;;6.60;;
8993;SDS011;4532;50.886;4.700;2023-04-24T09:11:59;15.67;;;7.50;;
8993;SDS011;4532;50.886;4.700;2023-04-24T09:14:30;16.43;;;6.97;;
8993;SDS011;4532;50.886;4.700;2023-04-24T09:16:58;16.33;;;7.13;;
8993;SDS011;4532;50.886;4.700;2023-04-24T09:19:25;11.50;;;6.10;;
8993;SDS011;4532;50.886;4.700;2023-04-24T09:21:53;16.70;;;7.07;;
8993;SDS011;4532;50.886;4.700;2023-04-24T09:24:23;15.77;;;6.90;;
8993;SDS011;4532;50.886;4.700;2023-04-24T09:26:59;12.53;;;6.83;;
8993;SDS011;4532;50.886;4.700;2023-04-24T09:29:30;14.00;;;6.10;;
8993;SDS011;4532;50.886;4.700;2023-04-24T09:32:01;17.67;;;6.77;;
8993;SDS011;4532;50.886;4.700;2023-04-24T09:37:39;12.23;;;6.80;;
8993;SDS011;4532;50.886;4.700;2023-04-24T09:40:17;13.90;;;6.93;;
8993;SDS011;4532;50.886;4.700;2023-04-24T09:42:53;14.13;;;6.87;;
8993;SDS011;4532;50.886;4.700;2023-04-24T09:45:27;11.20;;;5.97;;
8993;SDS011;4532;50.886;4.700;2023-04-24T09:48:04;13.73;;;6.50;;
8993;SDS011;4532;50.886;4.700;2023-04-24T09:50:35;10.77;;;6.47;;
8993;SDS011;4532;50.886;4.700;2023-04-24T09:53:07;17.93;;;7.03;;
8993;SDS011;4532;50.886;4.700;2023-04-24T09:55:42;14.97;;;5.90;;
8993;SDS011;4532;50.886;4.700;2023-04-24T09:58:15;9.93;;;5.47;;
8993;SDS011;4532;50.886;4.700;2023-04-24T10:00:42;11.40;;;5.50;;
8993;SDS011;4532;50.886;4.700;2023-04-24T10:03:14;10.73;;;4.50;;
8993;SDS011;4532;50.886;4.700;2023-04-24T10:05:44;11.73;;;4.53;;
8993;SDS011;4532;50.886;4.700;2023-04-24T10:08:13;10.53;;;4.70;;
8993;SDS011;4532;50.886;4.700;2023-04-24T10:10:43;10.10;;;4.90;;
8993;SDS011;4532;50.886;4.700;2023-04-24T10:13:17;9.20;;;4.90;;
8993;SDS011;4532;50.886;4.700;2023-04-24T10:15:52;8.77;;;4.27;;
8993;SDS011;4532;50.886;4.700;2023-04-24T10:18:21;10.23;;;4.87;;
8993;SDS011;4532;50.886;4.700;2023-04-24T10:20:53;7.67;;;4.63;;
8993;SDS011;4532;50.886;4.700;2023-04-24T10:23:24;11.27;;;5.20;;
8993;SDS011;4532;50.886;4.700;2023-04-24T10:25:52;9.83;;;4.73;;
8993;SDS011;4532;50.886;4.700;2023-04-24T10:28:22;10.13;;;5.07;;
8993;SDS011;4532;50.886;4.700;2023-04-24T10:30:56;9.27;;;4.93;;
8993;SDS011;4532;50.886;4.700;2023-04-24T10:33:25;9.33;;;5.43;;
8993;SDS011;4532;50.886;4.700;2023-04-24T10:35:55;10.50;;;4.87;;
8993;SDS011;4532;50.886;4.700;2023-04-24T10:38:25;10.37;;;5.13;;
8993;SDS011;4532;50.886;4.700;2023-04-24T10:41:08;10.97;;;5.20;;
8993;SDS011;4532;50.886;4.700;2023-04-24T10:43:46;7.83;;;4.97;;
8993;SDS011;4532;50.886;4.700;2023-04-24T10:46:16;9.93;;;4.93;;
8993;SDS011;4532;50.886;4.700;2023-04-24T10:48:52;10.23;;;5.20;;
8993;SDS011;4532;50.886;4.700;2023-04-24T10:51:23;8.53;;;4.80;;
8993;SDS011;4532;50.886;4.700;2023-04-24T10:53:53;8.50;;;5.27;;
8993;SDS011;4532;50.886;4.700;2023-04-24T10:56:26;9.13;;;5.17;;
8993;SDS011;4532;50.886;4.700;2023-04-24T10:58:57;10.33;;;5.07;;
8993;SDS011;4532;50.886;4.700;2023-04-24T11:01:25;8.40;;;4.77;;
8993;SDS011;4532;50.886;4.700;2023-04-24T11:03:59;10.47;;;5.17;;
8993;SDS011;4532;50.886;4.700;2023-04-24T11:06:34;9.37;;;5.63;;
8993;SDS011;4532;50.886;4.700;2023-04-24T11:09:09;9.33;;;5.33;;
8993;SDS011;4532;50.886;4.700;2023-04-24T11:11:44;9.77;;;4.77;;
8993;SDS011;4532;50.886;4.700;2023-04-24T11:14:17;8.87;;;5.10;;
8993;SDS011;4532;50.886;4.700;2023-04-24T11:16:47;8.17;;;4.70;;
8993;SDS011;4532;50.886;4.700;2023-04-24T11:19:24;7.03;;;4.30;;
8993;SDS011;4532;50.886;4.700;2023-04-24T11:27:17;11.90;;;5.47;;
8993;SDS011;4532;50.886;4.700;2023-04-24T11:34:56;12.40;;;4.77;;
8993;SDS011;4532;50.886;4.700;2023-04-24T11:37:29;8.67;;;4.80;;
8993;SDS011;4532;50.886;4.700;2023-04-24T11:40:07;6.57;;;4.77;;
8993;SDS011;4532;50.886;4.700;2023-04-24T11:42:45;7.10;;;5.00;;
8993;SDS011;4532;50.886;4.700;2023-04-24T11:47:58;7.97;;;4.63;;
8993;SDS011;4532;50.886;4.700;2023-04-24T11:50:26;8.53;;;5.37;;
8993;SDS011;4532;50.886;4.700;2023-04-24T11:52:54;8.70;;;5.63;;
8993;SDS011;4532;50.886;4.700;2023-04-24T11:57:50;8.20;;;5.47;;
8993;SDS011;4532;50.886;4.700;2023-04-24T12:00:21;13.37;;;5.83;;
8993;SDS011;4532;50.886;4.700;2023-04-24T12:03:03;10.07;;;5.87;;
8993;SDS011;4532;50.886;4.700;2023-04-24T12:05:32;11.97;;;5.90;;
8993;SDS011;4532;50.886;4.700;2023-04-24T12:08:01;11.57;;;6.23;;
8993;SDS011;4532;50.886;4.700;2023-04-24T12:10:29;7.53;;;5.53;;
8993;SDS011;4532;50.886;4.700;2023-04-24T12:13:00;8.73;;;4.70;;
8993;SDS011;4532;50.886;4.700;2023-04-24T12:15:27;10.17;;;6.17;;
8993;SDS011;4532;50.886;4.700;2023-04-24T12:17:59;7.40;;;5.43;;
8993;SDS011;4532;50.886;4.700;2023-04-24T12:20:30;11.97;;;5.43;;
8993;SDS011;4532;50.886;4.700;2023-04-24T12:23:04;8.03;;;5.50;;
8993;SDS011;4532;50.886;4.700;2023-04-24T12:25:35;8.83;;;6.07;;
8993;SDS011;4532;50.886;4.700;2023-04-24T12:30:30;8.20;;;5.40;;
8993;SDS011;4532;50.886;4.700;2023-04-24T12:33:06;7.87;;;5.33;;
8993;SDS011;4532;50.886;4.700;2023-04-24T12:35:36;7.97;;;6.03;;
8993;SDS011;4532;50.886;4.700;2023-04-24T12:38:08;12.97;;;6.23;;
8993;SDS011;4532;50.886;4.700;2023-04-24T12:40:40;8.57;;;6.47;;
8993;SDS011;4532;50.886;4.700;2023-04-24T12:43:18;7.77;;;5.33;;
8993;SDS011;4532;50.886;4.700;2023-04-24T12:45:47;7.33;;;5.50;;
8993;SDS011;4532;50.886;4.700;2023-04-24T12:48:17;8.10;;;5.13;;
8993;SDS011;4532;50.886;4.700;2023-04-24T12:50:44;10.23;;;5.73;;
8993;SDS011;4532;50.886;4.700;2023-04-24T12:53:13;8.67;;;5.10;;
8993;SDS011;4532;50.886;4.700;2023-04-24T12:55:41;5.87;;;4.30;;
8993;SDS011;4532;50.886;4.700;2023-04-24T12:58:11;6.97;;;4.80;;
8993;SDS011;4532;50.886;4.700;2023-04-24T13:00:41;8.73;;;5.13;;
8993;SDS011;4532;50.886;4.700;2023-04-24T13:03:10;6.63;;;5.07;;
8993;SDS011;4532;50.886;4.700;2023-04-24T13:05:43;6.20;;;4.63;;
8993;SDS011;4532;50.886;4.700;2023-04-24T13:08:10;5.47;;;4.43;;
8993;SDS011;4532;50.886;4.700;2023-04-24T13:10:39;8.63;;;4.93;;
8993;SDS011;4532;50.886;4.700;2023-04-24T13:13:08;7.57;;;4.50;;
8993;SDS011;4532;50.886;4.700;2023-04-24T13:15:35;7.33;;;5.30;;
8993;SDS011;4532;50.886;4.700;2023-04-24T13:18:06;8.40;;;5.17;;
8993;SDS011;4532;50.886;4.700;2023-04-24T13:20:41;8.40;;;5.43;;
8993;SDS011;4532;50.886;4.700;2023-04-24T13:23:13;8.83;;;5.23;;
8993;SDS011;4532;50.886;4.700;2023-04-24T13:25:42;9.33;;;4.97;;
8993;SDS011;4532;50.886;4.700;2023-04-24T13:28:09;16.10;;;5.10;;
8993;SDS011;4532;50.886;4.700;2023-04-24T13:30:41;6.10;;;4.53;;
8993;SDS011;4532;50.886;4.700;2023-04-24T13:33:11;6.10;;;4.27;;
8993;SDS011;4532;50.886;4.700;2023-04-24T13:35:38;5.50;;;3.83;;
8993;SDS011;4532;50.886;4.700;2023-04-24T13:38:10;5.03;;;3.90;;
8993;SDS011;4532;50.886;4.700;2023-04-24T13:40:38;7.17;;;3.93;;
8993;SDS011;4532;50.886;4.700;2023-04-24T13:43:07;6.90;;;3.53;;
8993;SDS011;4532;50.886;4.700;2023-04-24T13:45:34;6.07;;;3.40;;
8993;SDS011;4532;50.886;4.700;2023-04-24T13:48:04;7.00;;;3.07;;
8993;SDS011;4532;50.886;4.700;2023-04-24T13:50:31;5.07;;;3.50;;
8993;SDS011;4532;50.886;4.700;2023-04-24T13:53:03;6.80;;;3.27;;
8993;SDS011;4532;50.886;4.700;2023-04-24T13:55:30;6.13;;;3.67;;
8993;SDS011;4532;50.886;4.700;2023-04-24T13:58:02;5.73;;;3.53;;
8993;SDS011;4532;50.886;4.700;2023-04-24T14:00:33;9.67;;;3.90;;
8993;SDS011;4532;50.886;4.700;2023-04-24T14:03:02;6.07;;;3.50;;
8993;SDS011;4532;50.886;4.700;2023-04-24T14:05:32;5.63;;;3.40;;
8993;SDS011;4532;50.886;4.700;2023-04-24T14:08:04;4.37;;;3.57;;
8993;SDS011;4532;50.886;4.700;2023-04-24T14:10:36;5.97;;;3.23;;
8993;SDS011;4532;50.886;4.700;2023-04-24T14:13:03;3.60;;;3.20;;
8993;SDS011;4532;50.886;4.700;2023-04-24T14:15:33;5.00;;;2.83;;
8993;SDS011;4532;50.886;4.700;2023-04-24T14:18:07;6.97;;;3.07;;
8993;SDS011;4532;50.886;4.700;2023-04-24T14:20:36;11.50;;;3.60;;
8993;SDS011;4532;50.886;4.700;2023-04-24T14:23:06;5.93;;;3.40;;
8993;SDS011;4532;50.886;4.700;2023-04-24T14:25:38;7.00;;;3.30;;
8993;SDS011;4532;50.886;4.700;2023-04-24T14:28:05;5.63;;;2.90;;
8993;SDS011;4532;50.886;4.700;2023-04-24T14:30:38;7.43;;;2.63;;
8993;SDS011;4532;50.886;4.700;2023-04-24T14:33:09;5.40;;;2.63;;
8993;SDS011;4532;50.886;4.700;2023-04-24T14:35:39;5.10;;;3.00;;
8993;SDS011;4532;50.886;4.700;2023-04-24T14:38:09;8.10;;;2.90;;
8993;SDS011;4532;50.886;4.700;2023-04-24T14:40:37;5.07;;;2.70;;
8993;SDS011;4532;50.886;4.700;2023-04-24T14:43:26;5.30;;;2.50;;
8993;SDS011;4532;50.886;4.700;2023-04-24T14:45:56;3.80;;;2.37;;
8993;SDS011;4532;50.886;4.700;2023-04-24T14:48:30;4.27;;;2.50;;
8993;SDS011;4532;50.886;4.700;2023-04-24T14:50:59;4.63;;;2.23;;
8993;SDS011;4532;50.886;4.700;2023-04-24T14:53:29;7.13;;;2.60;;
8993;SDS011;4532;50.886;4.700;2023-04-24T14:55:56;5.27;;;2.40;;
8993;SDS011;4532;50.886;4.700;2023-04-24T14:58:26;6.00;;;2.90;;
8993;SDS011;4532;50.886;4.700;2023-04-24T15:00:56;5.53;;;3.00;;
8993;SDS011;4532;50.886;4.700;2023-04-24T15:03:26;7.40;;;3.37;;
8993;SDS011;4532;50.886;4.700;2023-04-24T15:05:58;4.03;;;2.87;;
8993;SDS011;4532;50.886;4.700;2023-04-24T15:08:26;3.90;;;2.70;;
8993;SDS011;4532;50.886;4.700;2023-04-24T15:10:55;5.37;;;2.83;;
8993;SDS011;4532;50.886;4.700;2023-04-24T15:13:27;6.83;;;3.13;;
8993;SDS011;4532;50.886;4.700;2023-04-24T15:16:01;5.60;;;3.20;;
8993;SDS011;4532;50.886;4.700;2023-04-24T15:18:28;5.63;;;2.97;;
8993;SDS011;4532;50.886;4.700;2023-04-24T15:20:58;5.07;;;3.20;;
8993;SDS011;4532;50.886;4.700;2023-04-24T15:23:30;3.63;;;3.00;;
8993;SDS011;4532;50.886;4.700;2023-04-24T15:26:00;5.97;;;3.23;;
8993;SDS011;4532;50.886;4.700;2023-04-24T15:28:28;8.43;;;3.77;;
8993;SDS011;4532;50.886;4.700;2023-04-24T15:30:55;6.87;;;3.50;;
8993;SDS011;4532;50.886;4.700;2023-04-24T15:33:22;4.70;;;3.10;;
8993;SDS011;4532;50.886;4.700;2023-04-24T15:35:50;6.00;;;3.20;;
8993;SDS011;4532;50.886;4.700;2023-04-24T15:38:17;5.67;;;2.97;;
8993;SDS011;4532;50.886;4.700;2023-04-24T15:40:46;5.60;;;2.37;;
8993;SDS011;4532;50.886;4.700;2023-04-24T15:43:18;5.33;;;2.40;;